sensor_id;sensor_type;location;lat;lon;timestamp;P1;durP1;ratioP1;P2;durP2;ratioP2
64419;SDS011;50745;48.170;14.516;2022-12-18T00:00:30;12.63;;;9.70;;
64419;SDS011;50745;48.170;14.516;2022-12-18T00:10:38;13.60;;;10.13;;
64419;SDS011;50745;48.170;14.516;2022-12-18T00:21:06;13.13;;;10.18;;
64419;SDS011;50745;48.170;14.516;2022-12-18T00:31:15;13.20;;;9.80;;
64419;SDS011;50745;48.170;14.516;2022-12-18T00:41:43;13.02;;;10.25;;
64419;SDS011;50745;48.170;14.516;2022-12-18T00:52:29;13.60;;;11.00;;
64419;SDS011;50745;48.170;14.516;2022-12-18T01:02:56;12.02;;;10.00;;
64419;SDS011;50745;48.170;14.516;2022-12-18T01:13:11;13.55;;;10.73;;
64419;SDS011;50745;48.170;14.516;2022-12-18T01:23:31;13.95;;;10.45;;
64419;SDS011;50745;48.170;14.516;2022-12-18T01:33:49;14.65;;;10.23;;
64419;SDS011;50745;48.170;14.516;2022-12-18T01:54:44;12.38;;;9.85;;
64419;SDS011;50745;48.170;14.516;2022-12-18T02:05:07;15.55;;;10.50;;
64419;SDS011;50745;48.170;14.516;2022-12-18T02:15:24;13.25;;;10.30;;
64419;SDS011;50745;48.170;14.516;2022-12-18T02:46:42;12.70;;;9.73;;
64419;SDS011;50745;48.170;14.516;2022-12-18T02:56:58;14.18;;;10.80;;
64419;SDS011;50745;48.170;14.516;2022-12-18T03:07:25;13.88;;;10.15;;
64419;SDS011;50745;48.170;14.516;2022-12-18T03:17:41;14.55;;;10.82;;
64419;SDS011;50745;48.170;14.516;2022-12-18T03:28:08;14.85;;;11.20;;
64419;SDS011;50745;48.170;14.516;2022-12-18T03:38:43;14.57;;;11.38;;
64419;SDS011;50745;48.170;14.516;2022-12-18T03:48:52;14.47;;;11.10;;
64419;SDS011;50745;48.170;14.516;2022-12-18T03:59:23;13.93;;;10.77;;
64419;SDS011;50745;48.170;14.516;2022-12-18T04:09:32;14.13;;;11.03;;
64419;SDS011;50745;48.170;14.516;2022-12-18T04:20:02;14.48;;;11.18;;
64419;SDS011;50745;48.170;14.516;2022-12-18T04:30:13;12.43;;;9.32;;
64419;SDS011;50745;48.170;14.516;2022-12-18T04:40:41;12.85;;;9.93;;
64419;SDS011;50745;48.170;14.516;2022-12-18T04:50:56;12.75;;;10.02;;
64419;SDS011;50745;48.170;14.516;2022-12-18T05:01:24;10.52;;;8.45;;
64419;SDS011;50745;48.170;14.516;2022-12-18T05:11:38;11.35;;;8.85;;
64419;SDS011;50745;48.170;14.516;2022-12-18T05:22:08;11.30;;;8.57;;
64419;SDS011;50745;48.170;14.516;2022-12-18T05:32:29;12.43;;;9.07;;
64419;SDS011;50745;48.170;14.516;2022-12-18T05:42:57;12.98;;;9.20;;
64419;SDS011;50745;48.170;14.516;2022-12-18T05:53:05;11.30;;;9.05;;
64419;SDS011;50745;48.170;14.516;2022-12-18T06:03:33;11.43;;;8.90;;
64419;SDS011;50745;48.170;14.516;2022-12-18T06:13:41;11.73;;;8.60;;
64419;SDS011;50745;48.170;14.516;2022-12-18T06:24:08;10.20;;;7.75;;
64419;SDS011;50745;48.170;14.516;2022-12-18T06:34:23;10.05;;;7.82;;
64419;SDS011;50745;48.170;14.516;2022-12-18T06:44:43;10.60;;;8.07;;
64419;SDS011;50745;48.170;14.516;2022-12-18T06:54:59;9.77;;;7.65;;
64419;SDS011;50745;48.170;14.516;2022-12-18T07:05:27;9.45;;;7.25;;
64419;SDS011;50745;48.170;14.516;2022-12-18T07:15:42;10.27;;;7.78;;
64419;SDS011;50745;48.170;14.516;2022-12-18T07:26:04;8.93;;;6.87;;
64419;SDS011;50745;48.170;14.516;2022-12-18T07:36:19;10.88;;;7.63;;
64419;SDS011;50745;48.170;14.516;2022-12-18T07:46:39;9.20;;;7.00;;
64419;SDS011;50745;48.170;14.516;2022-12-18T07:56:54;9.65;;;8.02;;
64419;SDS011;50745;48.170;14.516;2022-12-18T08:07:21;8.48;;;6.40;;
64419;SDS011;50745;48.170;14.516;2022-12-18T08:17:29;9.48;;;6.90;;
64419;SDS011;50745;48.170;14.516;2022-12-18T08:27:56;9.35;;;6.63;;
64419;SDS011;50745;48.170;14.516;2022-12-18T08:38:04;8.90;;;6.80;;
64419;SDS011;50745;48.170;14.516;2022-12-18T08:48:31;7.93;;;6.13;;
64419;SDS011;50745;48.170;14.516;2022-12-18T08:58:46;9.30;;;6.43;;
64419;SDS011;50745;48.170;14.516;2022-12-18T09:09:06;8.02;;;6.13;;
64419;SDS011;50745;48.170;14.516;2022-12-18T09:19:21;8.85;;;6.18;;
64419;SDS011;50745;48.170;14.516;2022-12-18T09:29:41;11.02;;;6.82;;
64419;SDS011;50745;48.170;14.516;2022-12-18T09:39:56;8.52;;;6.25;;
64419;SDS011;50745;48.170;14.516;2022-12-18T10:00:31;9.88;;;7.20;;
64419;SDS011;50745;48.170;14.516;2022-12-18T10:10:52;11.57;;;7.78;;
64419;SDS011;50745;48.170;14.516;2022-12-18T10:21:09;11.05;;;7.95;;
64419;SDS011;50745;48.170;14.516;2022-12-18T10:31:30;11.80;;;8.60;;
64419;SDS011;50745;48.170;14.516;2022-12-18T10:41:45;19.80;;;14.70;;
64419;SDS011;50745;48.170;14.516;2022-12-18T10:52:21;17.25;;;12.35;;
64419;SDS011;50745;48.170;14.516;2022-12-18T11:02:37;14.43;;;10.68;;
64419;SDS011;50745;48.170;14.516;2022-12-18T11:13:17;14.55;;;10.70;;
64419;SDS011;50745;48.170;14.516;2022-12-18T11:23:26;15.35;;;11.48;;
64419;SDS011;50745;48.170;14.516;2022-12-18T11:44:28;14.55;;;10.13;;
64419;SDS011;50745;48.170;14.516;2022-12-18T11:54:36;13.20;;;9.75;;
64419;SDS011;50745;48.170;14.516;2022-12-18T12:15:23;12.30;;;9.27;;
64419;SDS011;50745;48.170;14.516;2022-12-18T12:25:57;15.10;;;10.40;;
64419;SDS011;50745;48.170;14.516;2022-12-18T12:46:48;13.98;;;9.68;;
64419;SDS011;50745;48.170;14.516;2022-12-18T13:07:41;14.27;;;10.95;;
64419;SDS011;50745;48.170;14.516;2022-12-18T13:49:40;14.38;;;10.63;;
64419;SDS011;50745;48.170;14.516;2022-12-18T13:59:49;13.48;;;10.57;;
64419;SDS011;50745;48.170;14.516;2022-12-18T14:10:21;12.10;;;9.80;;
64419;SDS011;50745;48.170;14.516;2022-12-18T14:20:31;11.93;;;9.80;;
64419;SDS011;50745;48.170;14.516;2022-12-18T14:30:59;14.95;;;10.35;;
64419;SDS011;50745;48.170;14.516;2022-12-18T14:41:10;13.18;;;10.27;;
64419;SDS011;50745;48.170;14.516;2022-12-18T14:51:42;13.95;;;11.43;;
64419;SDS011;50745;48.170;14.516;2022-12-18T15:02:02;14.43;;;10.70;;
64419;SDS011;50745;48.170;14.516;2022-12-18T15:12:33;13.47;;;10.37;;
64419;SDS011;50745;48.170;14.516;2022-12-18T15:22:40;13.63;;;10.63;;
64419;SDS011;50745;48.170;14.516;2022-12-18T15:33:25;15.13;;;11.23;;
64419;SDS011;50745;48.170;14.516;2022-12-18T15:43:33;15.38;;;11.00;;
64419;SDS011;50745;48.170;14.516;2022-12-18T15:54:05;14.27;;;10.82;;
64419;SDS011;50745;48.170;14.516;2022-12-18T16:04:22;14.85;;;11.35;;
64419;SDS011;50745;48.170;14.516;2022-12-18T16:14:43;15.20;;;11.40;;
64419;SDS011;50745;48.170;14.516;2022-12-18T16:24:57;15.07;;;11.63;;
64419;SDS011;50745;48.170;14.516;2022-12-18T16:35:26;14.43;;;11.32;;
64419;SDS011;50745;48.170;14.516;2022-12-18T16:45:40;14.48;;;10.73;;
64419;SDS011;50745;48.170;14.516;2022-12-18T16:56:02;14.23;;;11.13;;
64419;SDS011;50745;48.170;14.516;2022-12-18T17:06:31;14.05;;;10.73;;
64419;SDS011;50745;48.170;14.516;2022-12-18T17:16:46;14.52;;;10.80;;
64419;SDS011;50745;48.170;14.516;2022-12-18T17:27:12;14.57;;;10.83;;
64419;SDS011;50745;48.170;14.516;2022-12-18T17:37:40;13.05;;;10.45;;
64419;SDS011;50745;48.170;14.516;2022-12-18T17:47:54;14.93;;;11.48;;
64419;SDS011;50745;48.170;14.516;2022-12-18T17:58:16;13.97;;;11.10;;
64419;SDS011;50745;48.170;14.516;2022-12-18T18:08:30;14.50;;;11.10;;
64419;SDS011;50745;48.170;14.516;2022-12-18T18:18:51;14.90;;;11.25;;
64419;SDS011;50745;48.170;14.516;2022-12-18T18:29:10;14.63;;;11.70;;
64419;SDS011;50745;48.170;14.516;2022-12-18T18:49:53;28.98;;;20.98;;
64419;SDS011;50745;48.170;14.516;2022-12-18T19:00:00;22.00;;;16.20;;
64419;SDS011;50745;48.170;14.516;2022-12-18T19:10:28;22.38;;;15.63;;
64419;SDS011;50745;48.170;14.516;2022-12-18T19:20:35;18.02;;;14.48;;
64419;SDS011;50745;48.170;14.516;2022-12-18T19:31:05;15.80;;;12.70;;
64419;SDS011;50745;48.170;14.516;2022-12-18T19:41:20;18.75;;;12.88;;
64419;SDS011;50745;48.170;14.516;2022-12-18T19:51:41;15.83;;;12.13;;
64419;SDS011;50745;48.170;14.516;2022-12-18T20:01:55;17.70;;;13.00;;
64419;SDS011;50745;48.170;14.516;2022-12-18T20:12:16;17.05;;;12.30;;
64419;SDS011;50745;48.170;14.516;2022-12-18T20:22:31;15.77;;;12.15;;
64419;SDS011;50745;48.170;14.516;2022-12-18T20:32:52;16.13;;;12.70;;
64419;SDS011;50745;48.170;14.516;2022-12-18T20:43:07;15.40;;;11.73;;
64419;SDS011;50745;48.170;14.516;2022-12-18T21:23:50;15.95;;;12.00;;
64419;SDS011;50745;48.170;14.516;2022-12-18T21:44:48;14.98;;;11.45;;
64419;SDS011;50745;48.170;14.516;2022-12-18T21:54:56;14.90;;;11.45;;
64419;SDS011;50745;48.170;14.516;2022-12-18T22:05:32;14.57;;;11.00;;
64419;SDS011;50745;48.170;14.516;2022-12-18T22:16:00;15.10;;;11.70;;
64419;SDS011;50745;48.170;14.516;2022-12-18T22:26:08;15.00;;;11.63;;
64419;SDS011;50745;48.170;14.516;2022-12-18T22:36:37;15.77;;;12.00;;
64419;SDS011;50745;48.170;14.516;2022-12-18T22:46:53;14.57;;;11.30;;
64419;SDS011;50745;48.170;14.516;2022-12-18T22:57:14;15.48;;;11.48;;
64419;SDS011;50745;48.170;14.516;2022-12-18T23:07:28;14.35;;;11.20;;
64419;SDS011;50745;48.170;14.516;2022-12-18T23:17:49;14.00;;;10.73;;
64419;SDS011;50745;48.170;14.516;2022-12-18T23:28:03;15.40;;;11.88;;
64419;SDS011;50745;48.170;14.516;2022-12-18T23:38:27;13.88;;;11.00;;
64419;SDS011;50745;48.170;14.516;2022-12-18T23:48:43;13.83;;;10.53;;
64419;SDS011;50745;48.170;14.516;2022-12-18T23:59:03;14.35;;;10.90;;
